sensor_id;sensor_type;location;lat;lon;timestamp;P1;durP1;ratioP1;P2;durP2;ratioP2
4857;SDS011;58975;51.978;8.472;2023-07-24T00:04:39;3.22;;;2.78;;
4857;SDS011;58975;51.978;8.472;2023-07-24T00:09:36;3.70;;;2.33;;
4857;SDS011;58975;51.978;8.472;2023-07-24T00:14:32;4.53;;;2.40;;
4857;SDS011;58975;51.978;8.472;2023-07-24T00:19:29;5.28;;;2.42;;
4857;SDS011;58975;51.978;8.472;2023-07-24T00:24:25;3.55;;;2.47;;
4857;SDS011;58975;51.978;8.472;2023-07-24T00:29:22;2.55;;;2.25;;
4857;SDS011;58975;51.978;8.472;2023-07-24T00:34:18;3.88;;;2.55;;
4857;SDS011;58975;51.978;8.472;2023-07-24T00:39:15;2.92;;;2.50;;
4857;SDS011;58975;51.978;8.472;2023-07-24T00:44:11;5.32;;;3.72;;
4857;SDS011;58975;51.978;8.472;2023-07-24T00:49:08;6.65;;;3.50;;
4857;SDS011;58975;51.978;8.472;2023-07-24T00:54:04;6.07;;;3.53;;
4857;SDS011;58975;51.978;8.472;2023-07-24T00:59:02;6.57;;;3.47;;
4857;SDS011;58975;51.978;8.472;2023-07-24T01:03:59;4.90;;;3.05;;
4857;SDS011;58975;51.978;8.472;2023-07-24T01:08:57;4.00;;;3.30;;
4857;SDS011;58975;51.978;8.472;2023-07-24T01:13:57;4.95;;;3.30;;
4857;SDS011;58975;51.978;8.472;2023-07-24T01:18:58;5.13;;;3.20;;
4857;SDS011;58975;51.978;8.472;2023-07-24T01:24:14;4.22;;;2.75;;
4857;SDS011;58975;51.978;8.472;2023-07-24T01:29:25;3.78;;;2.92;;
4857;SDS011;58975;51.978;8.472;2023-07-24T01:34:22;3.70;;;2.60;;
4857;SDS011;58975;51.978;8.472;2023-07-24T01:39:18;4.18;;;2.88;;
4857;SDS011;58975;51.978;8.472;2023-07-24T01:44:15;4.88;;;2.65;;
4857;SDS011;58975;51.978;8.472;2023-07-24T01:49:11;6.55;;;2.88;;
4857;SDS011;58975;51.978;8.472;2023-07-24T01:54:08;4.82;;;2.70;;
4857;SDS011;58975;51.978;8.472;2023-07-24T01:59:05;2.77;;;2.10;;
4857;SDS011;58975;51.978;8.472;2023-07-24T02:04:02;2.60;;;2.30;;
4857;SDS011;58975;51.978;8.472;2023-07-24T02:08:58;3.05;;;2.45;;
4857;SDS011;58975;51.978;8.472;2023-07-24T02:13:55;3.40;;;2.70;;
4857;SDS011;58975;51.978;8.472;2023-07-24T02:18:51;3.25;;;2.67;;
4857;SDS011;58975;51.978;8.472;2023-07-24T02:23:48;4.47;;;2.50;;
4857;SDS011;58975;51.978;8.472;2023-07-24T02:28:45;3.60;;;2.15;;
4857;SDS011;58975;51.978;8.472;2023-07-24T02:33:41;4.68;;;2.45;;
4857;SDS011;58975;51.978;8.472;2023-07-24T02:38:38;3.30;;;2.58;;
4857;SDS011;58975;51.978;8.472;2023-07-24T02:43:35;5.63;;;2.60;;
4857;SDS011;58975;51.978;8.472;2023-07-24T02:48:31;4.70;;;2.60;;
4857;SDS011;58975;51.978;8.472;2023-07-24T02:53:27;2.55;;;2.35;;
4857;SDS011;58975;51.978;8.472;2023-07-24T02:58:24;3.50;;;2.63;;
4857;SDS011;58975;51.978;8.472;2023-07-24T03:03:20;2.90;;;2.47;;
4857;SDS011;58975;51.978;8.472;2023-07-24T03:08:17;6.97;;;3.33;;
4857;SDS011;58975;51.978;8.472;2023-07-24T03:13:13;4.18;;;2.63;;
4857;SDS011;58975;51.978;8.472;2023-07-24T03:18:10;4.70;;;2.47;;
4857;SDS011;58975;51.978;8.472;2023-07-24T03:23:06;3.75;;;2.20;;
4857;SDS011;58975;51.978;8.472;2023-07-24T03:28:03;5.18;;;2.65;;
4857;SDS011;58975;51.978;8.472;2023-07-24T03:33:00;3.80;;;3.13;;
4857;SDS011;58975;51.978;8.472;2023-07-24T03:37:58;3.92;;;2.90;;
4857;SDS011;58975;51.978;8.472;2023-07-24T03:42:54;4.93;;;2.80;;
4857;SDS011;58975;51.978;8.472;2023-07-24T03:47:51;7.80;;;3.58;;
4857;SDS011;58975;51.978;8.472;2023-07-24T03:52:47;5.28;;;2.97;;
4857;SDS011;58975;51.978;8.472;2023-07-24T03:57:44;5.60;;;2.60;;
4857;SDS011;58975;51.978;8.472;2023-07-24T04:02:40;3.15;;;2.85;;
4857;SDS011;58975;51.978;8.472;2023-07-24T04:07:37;6.63;;;2.70;;
4857;SDS011;58975;51.978;8.472;2023-07-24T04:12:34;3.72;;;2.83;;
4857;SDS011;58975;51.978;8.472;2023-07-24T04:17:30;3.70;;;2.55;;
4857;SDS011;58975;51.978;8.472;2023-07-24T04:22:28;3.97;;;2.55;;
4857;SDS011;58975;51.978;8.472;2023-07-24T04:27:25;5.20;;;2.80;;
4857;SDS011;58975;51.978;8.472;2023-07-24T04:32:21;5.38;;;3.03;;
4857;SDS011;58975;51.978;8.472;2023-07-24T04:37:18;4.35;;;2.70;;
4857;SDS011;58975;51.978;8.472;2023-07-24T04:42:14;5.65;;;2.53;;
4857;SDS011;58975;51.978;8.472;2023-07-24T04:47:11;3.03;;;2.50;;
4857;SDS011;58975;51.978;8.472;2023-07-24T04:52:07;6.50;;;2.95;;
4857;SDS011;58975;51.978;8.472;2023-07-24T04:57:04;2.60;;;2.40;;
4857;SDS011;58975;51.978;8.472;2023-07-24T05:02:00;5.80;;;3.03;;
4857;SDS011;58975;51.978;8.472;2023-07-24T05:06:57;6.45;;;3.28;;
4857;SDS011;58975;51.978;8.472;2023-07-24T05:11:53;3.92;;;2.50;;
4857;SDS011;58975;51.978;8.472;2023-07-24T05:16:50;3.40;;;2.70;;
4857;SDS011;58975;51.978;8.472;2023-07-24T05:21:46;3.45;;;2.67;;
4857;SDS011;58975;51.978;8.472;2023-07-24T05:26:43;4.95;;;2.67;;
4857;SDS011;58975;51.978;8.472;2023-07-24T05:31:39;4.90;;;2.60;;
4857;SDS011;58975;51.978;8.472;2023-07-24T05:36:36;9.23;;;3.53;;
4857;SDS011;58975;51.978;8.472;2023-07-24T05:41:32;8.88;;;2.83;;
4857;SDS011;58975;51.978;8.472;2023-07-24T05:46:29;7.23;;;3.63;;
4857;SDS011;58975;51.978;8.472;2023-07-24T05:51:26;6.30;;;3.60;;
4857;SDS011;58975;51.978;8.472;2023-07-24T05:56:23;7.72;;;4.03;;
4857;SDS011;58975;51.978;8.472;2023-07-24T06:01:19;7.55;;;4.32;;
4857;SDS011;58975;51.978;8.472;2023-07-24T06:06:16;8.40;;;4.00;;
4857;SDS011;58975;51.978;8.472;2023-07-24T06:11:13;11.98;;;4.68;;
4857;SDS011;58975;51.978;8.472;2023-07-24T06:16:09;10.88;;;4.35;;
4857;SDS011;58975;51.978;8.472;2023-07-24T06:21:06;8.65;;;4.35;;
4857;SDS011;58975;51.978;8.472;2023-07-24T06:26:03;18.52;;;5.20;;
4857;SDS011;58975;51.978;8.472;2023-07-24T06:30:59;7.97;;;3.92;;
4857;SDS011;58975;51.978;8.472;2023-07-24T06:35:56;7.07;;;4.28;;
4857;SDS011;58975;51.978;8.472;2023-07-24T06:40:52;9.20;;;5.07;;
4857;SDS011;58975;51.978;8.472;2023-07-24T06:45:48;12.85;;;5.03;;
4857;SDS011;58975;51.978;8.472;2023-07-24T06:50:45;11.20;;;4.80;;
4857;SDS011;58975;51.978;8.472;2023-07-24T06:55:42;11.00;;;4.75;;
4857;SDS011;58975;51.978;8.472;2023-07-24T07:00:38;10.07;;;4.70;;
4857;SDS011;58975;51.978;8.472;2023-07-24T07:05:34;8.93;;;4.43;;
4857;SDS011;58975;51.978;8.472;2023-07-24T07:10:31;5.22;;;3.35;;
4857;SDS011;58975;51.978;8.472;2023-07-24T07:15:28;4.40;;;3.35;;
4857;SDS011;58975;51.978;8.472;2023-07-24T07:20:24;6.65;;;3.67;;
4857;SDS011;58975;51.978;8.472;2023-07-24T07:25:21;4.78;;;3.72;;
4857;SDS011;58975;51.978;8.472;2023-07-24T07:30:17;6.20;;;4.40;;
4857;SDS011;58975;51.978;8.472;2023-07-24T07:35:14;7.75;;;4.00;;
4857;SDS011;58975;51.978;8.472;2023-07-24T07:40:10;6.60;;;3.78;;
4857;SDS011;58975;51.978;8.472;2023-07-24T07:45:07;8.47;;;4.10;;
4857;SDS011;58975;51.978;8.472;2023-07-24T07:50:04;10.00;;;4.27;;
4857;SDS011;58975;51.978;8.472;2023-07-24T07:55:01;8.13;;;4.03;;
4857;SDS011;58975;51.978;8.472;2023-07-24T07:59:57;6.90;;;4.07;;
4857;SDS011;58975;51.978;8.472;2023-07-24T08:04:54;7.97;;;4.53;;
4857;SDS011;58975;51.978;8.472;2023-07-24T08:09:50;10.27;;;4.50;;
4857;SDS011;58975;51.978;8.472;2023-07-24T08:14:47;4.27;;;3.67;;
4857;SDS011;58975;51.978;8.472;2023-07-24T08:19:43;7.85;;;3.85;;
4857;SDS011;58975;51.978;8.472;2023-07-24T08:24:40;7.65;;;4.05;;
4857;SDS011;58975;51.978;8.472;2023-07-24T08:29:36;4.60;;;3.20;;
4857;SDS011;58975;51.978;8.472;2023-07-24T08:39:30;5.20;;;3.42;;
4857;SDS011;58975;51.978;8.472;2023-07-24T08:44:27;12.23;;;4.93;;
4857;SDS011;58975;51.978;8.472;2023-07-24T08:49:26;6.47;;;4.00;;
4857;SDS011;58975;51.978;8.472;2023-07-24T08:54:25;5.13;;;3.38;;
4857;SDS011;58975;51.978;8.472;2023-07-24T08:59:22;6.43;;;3.80;;
4857;SDS011;58975;51.978;8.472;2023-07-24T09:04:19;4.25;;;3.72;;
4857;SDS011;58975;51.978;8.472;2023-07-24T09:09:16;6.80;;;4.32;;
4857;SDS011;58975;51.978;8.472;2023-07-24T09:14:26;4.78;;;3.97;;
4857;SDS011;58975;51.978;8.472;2023-07-24T09:19:28;10.65;;;4.47;;
4857;SDS011;58975;51.978;8.472;2023-07-24T09:24:24;9.05;;;5.38;;
4857;SDS011;58975;51.978;8.472;2023-07-24T09:29:21;6.75;;;5.10;;
4857;SDS011;58975;51.978;8.472;2023-07-24T09:34:18;6.72;;;5.50;;
4857;SDS011;58975;51.978;8.472;2023-07-24T09:39:15;8.18;;;6.43;;
4857;SDS011;58975;51.978;8.472;2023-07-24T09:44:19;7.43;;;5.70;;
4857;SDS011;58975;51.978;8.472;2023-07-24T09:49:15;10.25;;;6.20;;
4857;SDS011;58975;51.978;8.472;2023-07-24T09:54:15;12.73;;;7.97;;
4857;SDS011;58975;51.978;8.472;2023-07-24T09:59:21;10.10;;;6.75;;
4857;SDS011;58975;51.978;8.472;2023-07-24T10:09:15;6.70;;;5.10;;
4857;SDS011;58975;51.978;8.472;2023-07-24T10:14:12;5.97;;;5.15;;
4857;SDS011;58975;51.978;8.472;2023-07-24T10:19:12;5.97;;;4.55;;
4857;SDS011;58975;51.978;8.472;2023-07-24T10:24:11;4.57;;;4.13;;
4857;SDS011;58975;51.978;8.472;2023-07-24T10:29:14;6.22;;;4.65;;
4857;SDS011;58975;51.978;8.472;2023-07-24T10:34:11;4.35;;;3.95;;
4857;SDS011;58975;51.978;8.472;2023-07-24T10:39:17;4.28;;;3.63;;
4857;SDS011;58975;51.978;8.472;2023-07-24T10:44:17;4.80;;;4.25;;
4857;SDS011;58975;51.978;8.472;2023-07-24T10:49:13;5.70;;;4.45;;
4857;SDS011;58975;51.978;8.472;2023-07-24T10:54:10;5.50;;;4.97;;
4857;SDS011;58975;51.978;8.472;2023-07-24T10:59:06;4.82;;;4.32;;
4857;SDS011;58975;51.978;8.472;2023-07-24T11:04:03;6.40;;;4.13;;
4857;SDS011;58975;51.978;8.472;2023-07-24T11:09:00;3.17;;;2.72;;
4857;SDS011;58975;51.978;8.472;2023-07-24T11:13:56;7.22;;;3.72;;
4857;SDS011;58975;51.978;8.472;2023-07-24T11:18:53;4.07;;;2.88;;
4857;SDS011;58975;51.978;8.472;2023-07-24T11:23:51;2.45;;;2.25;;
4857;SDS011;58975;51.978;8.472;2023-07-24T11:28:50;4.47;;;2.67;;
4857;SDS011;58975;51.978;8.472;2023-07-24T11:38:45;4.63;;;3.28;;
4857;SDS011;58975;51.978;8.472;2023-07-24T11:43:46;6.65;;;4.15;;
4857;SDS011;58975;51.978;8.472;2023-07-24T11:48:43;6.05;;;4.32;;
4857;SDS011;58975;51.978;8.472;2023-07-24T11:53:40;5.43;;;4.38;;
4857;SDS011;58975;51.978;8.472;2023-07-24T11:58:36;8.45;;;4.03;;
4857;SDS011;58975;51.978;8.472;2023-07-24T12:03:33;6.15;;;4.40;;
4857;SDS011;58975;51.978;8.472;2023-07-24T12:08:33;5.67;;;3.87;;
4857;SDS011;58975;51.978;8.472;2023-07-24T12:13:30;7.60;;;4.15;;
4857;SDS011;58975;51.978;8.472;2023-07-24T12:23:25;4.63;;;4.13;;
4857;SDS011;58975;51.978;8.472;2023-07-24T12:28:21;5.75;;;4.03;;
4857;SDS011;58975;51.978;8.472;2023-07-24T12:33:18;5.38;;;4.22;;
4857;SDS011;58975;51.978;8.472;2023-07-24T12:38:14;5.55;;;4.25;;
4857;SDS011;58975;51.978;8.472;2023-07-24T12:43:11;8.63;;;4.47;;
4857;SDS011;58975;51.978;8.472;2023-07-24T12:48:07;9.43;;;6.10;;
4857;SDS011;58975;51.978;8.472;2023-07-24T12:53:03;7.35;;;5.82;;
4857;SDS011;58975;51.978;8.472;2023-07-24T12:58:05;5.55;;;4.75;;
4857;SDS011;58975;51.978;8.472;2023-07-24T13:03:02;7.00;;;5.60;;
4857;SDS011;58975;51.978;8.472;2023-07-24T13:07:59;10.70;;;5.93;;
4857;SDS011;58975;51.978;8.472;2023-07-24T13:12:55;9.00;;;6.25;;
4857;SDS011;58975;51.978;8.472;2023-07-24T13:17:52;7.15;;;5.32;;
4857;SDS011;58975;51.978;8.472;2023-07-24T13:22:49;7.85;;;5.65;;
4857;SDS011;58975;51.978;8.472;2023-07-24T13:27:45;8.13;;;5.68;;
4857;SDS011;58975;51.978;8.472;2023-07-24T13:32:42;10.52;;;4.78;;
4857;SDS011;58975;51.978;8.472;2023-07-24T13:37:38;6.90;;;4.07;;
4857;SDS011;58975;51.978;8.472;2023-07-24T13:42:34;5.03;;;3.40;;
4857;SDS011;58975;51.978;8.472;2023-07-24T13:47:31;6.68;;;3.40;;
4857;SDS011;58975;51.978;8.472;2023-07-24T13:52:28;3.08;;;2.75;;
4857;SDS011;58975;51.978;8.472;2023-07-24T13:57:24;6.63;;;2.95;;
4857;SDS011;58975;51.978;8.472;2023-07-24T14:02:20;5.90;;;2.78;;
4857;SDS011;58975;51.978;8.472;2023-07-24T14:07:17;3.40;;;2.00;;
4857;SDS011;58975;51.978;8.472;2023-07-24T14:12:13;4.43;;;2.03;;
4857;SDS011;58975;51.978;8.472;2023-07-24T14:17:10;2.03;;;1.80;;
4857;SDS011;58975;51.978;8.472;2023-07-24T14:22:07;1.38;;;1.25;;
4857;SDS011;58975;51.978;8.472;2023-07-24T14:27:03;1.90;;;1.60;;
4857;SDS011;58975;51.978;8.472;2023-07-24T14:31:59;1.73;;;1.63;;
4857;SDS011;58975;51.978;8.472;2023-07-24T14:36:56;3.10;;;2.00;;
4857;SDS011;58975;51.978;8.472;2023-07-24T14:41:52;1.88;;;1.20;;
4857;SDS011;58975;51.978;8.472;2023-07-24T14:46:49;2.08;;;1.20;;
4857;SDS011;58975;51.978;8.472;2023-07-24T14:51:45;3.15;;;1.17;;
4857;SDS011;58975;51.978;8.472;2023-07-24T14:56:42;1.98;;;1.02;;
4857;SDS011;58975;51.978;8.472;2023-07-24T15:01:52;1.15;;;1.00;;
4857;SDS011;58975;51.978;8.472;2023-07-24T15:06:48;1.42;;;1.30;;
4857;SDS011;58975;51.978;8.472;2023-07-24T15:11:45;2.03;;;1.42;;
4857;SDS011;58975;51.978;8.472;2023-07-24T15:16:42;1.55;;;1.10;;
4857;SDS011;58975;51.978;8.472;2023-07-24T15:21:38;1.00;;;0.75;;
4857;SDS011;58975;51.978;8.472;2023-07-24T15:26:35;1.00;;;0.80;;
4857;SDS011;58975;51.978;8.472;2023-07-24T15:31:31;1.30;;;0.82;;
4857;SDS011;58975;51.978;8.472;2023-07-24T15:36:34;1.45;;;1.27;;
4857;SDS011;58975;51.978;8.472;2023-07-24T15:41:32;1.25;;;1.15;;
4857;SDS011;58975;51.978;8.472;2023-07-24T15:46:29;1.67;;;1.30;;
4857;SDS011;58975;51.978;8.472;2023-07-24T15:51:28;7.70;;;1.95;;
4857;SDS011;58975;51.978;8.472;2023-07-24T15:56:26;2.67;;;2.30;;
4857;SDS011;58975;51.978;8.472;2023-07-24T16:01:23;2.85;;;2.20;;
4857;SDS011;58975;51.978;8.472;2023-07-24T16:06:19;3.80;;;2.40;;
4857;SDS011;58975;51.978;8.472;2023-07-24T16:11:16;3.50;;;2.17;;
4857;SDS011;58975;51.978;8.472;2023-07-24T16:16:12;5.15;;;2.20;;
4857;SDS011;58975;51.978;8.472;2023-07-24T16:21:11;1.92;;;1.83;;
4857;SDS011;58975;51.978;8.472;2023-07-24T16:26:07;4.25;;;2.67;;
4857;SDS011;58975;51.978;8.472;2023-07-24T16:31:04;2.47;;;1.77;;
4857;SDS011;58975;51.978;8.472;2023-07-24T16:36:00;3.45;;;2.63;;
4857;SDS011;58975;51.978;8.472;2023-07-24T16:40:56;3.97;;;2.60;;
4857;SDS011;58975;51.978;8.472;2023-07-24T16:45:53;6.50;;;2.55;;
4857;SDS011;58975;51.978;8.472;2023-07-24T16:50:52;3.10;;;2.47;;
4857;SDS011;58975;51.978;8.472;2023-07-24T16:55:49;2.67;;;2.47;;
4857;SDS011;58975;51.978;8.472;2023-07-24T17:00:45;3.08;;;2.15;;
4857;SDS011;58975;51.978;8.472;2023-07-24T17:05:42;4.87;;;2.80;;
4857;SDS011;58975;51.978;8.472;2023-07-24T17:10:43;8.93;;;4.30;;
4857;SDS011;58975;51.978;8.472;2023-07-24T17:15:41;8.20;;;5.05;;
4857;SDS011;58975;51.978;8.472;2023-07-24T17:20:38;5.32;;;3.88;;
4857;SDS011;58975;51.978;8.472;2023-07-24T17:25:35;6.45;;;4.70;;
4857;SDS011;58975;51.978;8.472;2023-07-24T17:30:32;7.85;;;6.10;;
4857;SDS011;58975;51.978;8.472;2023-07-24T17:35:28;11.88;;;7.65;;
4857;SDS011;58975;51.978;8.472;2023-07-24T17:40:25;7.75;;;6.28;;
4857;SDS011;58975;51.978;8.472;2023-07-24T17:50:19;8.15;;;6.55;;
4857;SDS011;58975;51.978;8.472;2023-07-24T17:55:16;8.87;;;6.70;;
4857;SDS011;58975;51.978;8.472;2023-07-24T18:00:12;10.32;;;7.72;;
4857;SDS011;58975;51.978;8.472;2023-07-24T18:05:09;15.38;;;8.35;;
4857;SDS011;58975;51.978;8.472;2023-07-24T18:10:06;17.92;;;7.85;;
4857;SDS011;58975;51.978;8.472;2023-07-24T18:15:04;7.43;;;6.55;;
4857;SDS011;58975;51.978;8.472;2023-07-24T18:20:01;9.00;;;4.33;;
4857;SDS011;58975;51.978;8.472;2023-07-24T18:24:57;8.48;;;6.50;;
4857;SDS011;58975;51.978;8.472;2023-07-24T18:29:54;5.07;;;3.40;;
4857;SDS011;58975;51.978;8.472;2023-07-24T18:34:50;5.18;;;2.80;;
4857;SDS011;58975;51.978;8.472;2023-07-24T18:39:46;13.73;;;4.70;;
4857;SDS011;58975;51.978;8.472;2023-07-24T18:44:43;9.05;;;4.72;;
4857;SDS011;58975;51.978;8.472;2023-07-24T18:49:39;5.80;;;2.75;;
4857;SDS011;58975;51.978;8.472;2023-07-24T18:54:36;9.30;;;3.13;;
4857;SDS011;58975;51.978;8.472;2023-07-24T18:59:32;8.15;;;2.67;;
4857;SDS011;58975;51.978;8.472;2023-07-24T19:04:29;4.80;;;2.65;;
4857;SDS011;58975;51.978;8.472;2023-07-24T19:09:25;3.65;;;3.20;;
4857;SDS011;58975;51.978;8.472;2023-07-24T19:14:21;4.13;;;3.17;;
4857;SDS011;58975;51.978;8.472;2023-07-24T19:19:18;5.63;;;2.47;;
4857;SDS011;58975;51.978;8.472;2023-07-24T19:24:14;5.68;;;3.33;;
4857;SDS011;58975;51.978;8.472;2023-07-24T19:29:11;6.82;;;3.55;;
4857;SDS011;58975;51.978;8.472;2023-07-24T19:34:07;6.60;;;3.83;;
4857;SDS011;58975;51.978;8.472;2023-07-24T19:39:04;4.70;;;3.28;;
4857;SDS011;58975;51.978;8.472;2023-07-24T19:44:02;5.35;;;3.20;;
4857;SDS011;58975;51.978;8.472;2023-07-24T19:48:59;3.33;;;2.92;;
4857;SDS011;58975;51.978;8.472;2023-07-24T19:53:55;8.03;;;3.40;;
4857;SDS011;58975;51.978;8.472;2023-07-24T19:58:52;3.95;;;3.35;;
4857;SDS011;58975;51.978;8.472;2023-07-24T20:03:49;12.35;;;4.15;;
4857;SDS011;58975;51.978;8.472;2023-07-24T20:08:46;7.25;;;4.28;;
4857;SDS011;58975;51.978;8.472;2023-07-24T20:13:43;5.45;;;4.20;;
4857;SDS011;58975;51.978;8.472;2023-07-24T20:18:39;5.65;;;4.15;;
4857;SDS011;58975;51.978;8.472;2023-07-24T20:23:35;4.38;;;3.65;;
4857;SDS011;58975;51.978;8.472;2023-07-24T20:28:32;10.05;;;4.57;;
4857;SDS011;58975;51.978;8.472;2023-07-24T20:33:29;9.15;;;6.13;;
4857;SDS011;58975;51.978;8.472;2023-07-24T20:38:26;14.68;;;9.20;;
4857;SDS011;58975;51.978;8.472;2023-07-24T20:43:23;5.97;;;4.60;;
4857;SDS011;58975;51.978;8.472;2023-07-24T20:48:19;6.22;;;4.82;;
4857;SDS011;58975;51.978;8.472;2023-07-24T20:53:20;4.72;;;4.32;;
4857;SDS011;58975;51.978;8.472;2023-07-24T20:58:17;10.20;;;5.22;;
4857;SDS011;58975;51.978;8.472;2023-07-24T21:03:13;8.57;;;4.75;;
4857;SDS011;58975;51.978;8.472;2023-07-24T21:08:10;12.88;;;5.47;;
4857;SDS011;58975;51.978;8.472;2023-07-24T21:13:06;7.70;;;4.75;;
4857;SDS011;58975;51.978;8.472;2023-07-24T21:18:02;5.45;;;3.70;;
4857;SDS011;58975;51.978;8.472;2023-07-24T21:22:59;3.67;;;2.80;;
4857;SDS011;58975;51.978;8.472;2023-07-24T21:27:55;7.25;;;2.55;;
4857;SDS011;58975;51.978;8.472;2023-07-24T21:32:52;3.80;;;2.35;;
4857;SDS011;58975;51.978;8.472;2023-07-24T21:37:48;10.27;;;2.42;;
4857;SDS011;58975;51.978;8.472;2023-07-24T21:42:44;3.28;;;1.77;;
4857;SDS011;58975;51.978;8.472;2023-07-24T21:47:41;3.55;;;1.85;;
4857;SDS011;58975;51.978;8.472;2023-07-24T21:52:37;5.03;;;1.98;;
4857;SDS011;58975;51.978;8.472;2023-07-24T21:57:34;7.22;;;2.20;;
4857;SDS011;58975;51.978;8.472;2023-07-24T22:02:30;5.95;;;2.00;;
4857;SDS011;58975;51.978;8.472;2023-07-24T22:07:27;6.60;;;2.80;;
4857;SDS011;58975;51.978;8.472;2023-07-24T22:12:23;11.70;;;2.20;;
4857;SDS011;58975;51.978;8.472;2023-07-24T22:17:20;5.30;;;1.75;;
4857;SDS011;58975;51.978;8.472;2023-07-24T22:22:16;6.70;;;1.75;;
4857;SDS011;58975;51.978;8.472;2023-07-24T22:27:13;2.90;;;1.63;;
4857;SDS011;58975;51.978;8.472;2023-07-24T22:32:10;4.25;;;1.85;;
4857;SDS011;58975;51.978;8.472;2023-07-24T22:37:06;6.53;;;1.70;;
4857;SDS011;58975;51.978;8.472;2023-07-24T22:42:03;4.05;;;1.30;;
4857;SDS011;58975;51.978;8.472;2023-07-24T22:47:00;9.20;;;2.17;;
4857;SDS011;58975;51.978;8.472;2023-07-24T22:51:56;3.63;;;1.80;;
4857;SDS011;58975;51.978;8.472;2023-07-24T22:56:53;3.80;;;1.60;;
4857;SDS011;58975;51.978;8.472;2023-07-24T23:01:50;4.15;;;1.60;;
4857;SDS011;58975;51.978;8.472;2023-07-24T23:11:44;6.78;;;1.90;;
4857;SDS011;58975;51.978;8.472;2023-07-24T23:16:41;7.35;;;2.28;;
4857;SDS011;58975;51.978;8.472;2023-07-24T23:21:38;3.42;;;2.10;;
4857;SDS011;58975;51.978;8.472;2023-07-24T23:26:34;5.15;;;2.38;;
4857;SDS011;58975;51.978;8.472;2023-07-24T23:31:30;5.32;;;2.08;;
4857;SDS011;58975;51.978;8.472;2023-07-24T23:36:27;3.80;;;2.30;;
4857;SDS011;58975;51.978;8.472;2023-07-24T23:41:24;5.00;;;2.25;;
4857;SDS011;58975;51.978;8.472;2023-07-24T23:51:19;8.15;;;2.78;;
4857;SDS011;58975;51.978;8.472;2023-07-24T23:56:16;7.87;;;2.63;;
